sensor_id;sensor_type;location;lat;lon;timestamp;P1;durP1;ratioP1;P2;durP2;ratioP2
74523;SDS011;63074;44.696;10.358;2024-01-15T00:00:43;60.13;;;25.85;;
74523;SDS011;63074;44.696;10.358;2024-01-15T00:03:09;54.53;;;25.48;;
74523;SDS011;63074;44.696;10.358;2024-01-15T00:05:36;50.25;;;23.35;;
74523;SDS011;63074;44.696;10.358;2024-01-15T00:08:02;52.83;;;23.83;;
74523;SDS011;63074;44.696;10.358;2024-01-15T00:10:28;55.38;;;25.25;;
74523;SDS011;63074;44.696;10.358;2024-01-15T00:12:54;53.53;;;25.92;;
74523;SDS011;63074;44.696;10.358;2024-01-15T00:15:21;48.03;;;23.67;;
74523;SDS011;63074;44.696;10.358;2024-01-15T00:17:47;56.63;;;25.15;;
74523;SDS011;63074;44.696;10.358;2024-01-15T00:20:13;53.05;;;25.88;;
74523;SDS011;63074;44.696;10.358;2024-01-15T00:22:39;49.70;;;24.00;;
74523;SDS011;63074;44.696;10.358;2024-01-15T00:25:06;54.45;;;25.38;;
74523;SDS011;63074;44.696;10.358;2024-01-15T00:27:32;51.58;;;23.90;;
74523;SDS011;63074;44.696;10.358;2024-01-15T00:29:58;51.47;;;25.63;;
74523;SDS011;63074;44.696;10.358;2024-01-15T00:32:24;52.10;;;24.00;;
74523;SDS011;63074;44.696;10.358;2024-01-15T00:34:50;52.20;;;23.92;;
74523;SDS011;63074;44.696;10.358;2024-01-15T00:37:17;52.88;;;25.73;;
74523;SDS011;63074;44.696;10.358;2024-01-15T00:39:43;52.47;;;24.23;;
74523;SDS011;63074;44.696;10.358;2024-01-15T00:42:09;54.28;;;25.73;;
74523;SDS011;63074;44.696;10.358;2024-01-15T00:44:35;52.80;;;22.63;;
74523;SDS011;63074;44.696;10.358;2024-01-15T00:47:02;57.28;;;24.13;;
74523;SDS011;63074;44.696;10.358;2024-01-15T00:49:28;58.90;;;25.10;;
74523;SDS011;63074;44.696;10.358;2024-01-15T00:51:54;48.67;;;23.60;;
74523;SDS011;63074;44.696;10.358;2024-01-15T00:54:21;49.28;;;23.40;;
74523;SDS011;63074;44.696;10.358;2024-01-15T00:56:47;54.08;;;25.77;;
74523;SDS011;63074;44.696;10.358;2024-01-15T00:59:13;52.42;;;25.27;;
74523;SDS011;63074;44.696;10.358;2024-01-15T01:01:42;49.17;;;24.60;;
74523;SDS011;63074;44.696;10.358;2024-01-15T01:04:11;46.42;;;24.80;;
74523;SDS011;63074;44.696;10.358;2024-01-15T01:06:37;47.72;;;23.52;;
74523;SDS011;63074;44.696;10.358;2024-01-15T01:09:03;45.60;;;22.80;;
74523;SDS011;63074;44.696;10.358;2024-01-15T01:11:30;48.97;;;24.73;;
74523;SDS011;63074;44.696;10.358;2024-01-15T01:13:56;49.40;;;25.90;;
74523;SDS011;63074;44.696;10.358;2024-01-15T01:16:22;52.60;;;25.48;;
74523;SDS011;63074;44.696;10.358;2024-01-15T01:18:49;46.00;;;24.38;;
74523;SDS011;63074;44.696;10.358;2024-01-15T01:21:15;46.78;;;23.52;;
74523;SDS011;63074;44.696;10.358;2024-01-15T01:23:41;50.38;;;24.52;;
74523;SDS011;63074;44.696;10.358;2024-01-15T01:26:08;51.08;;;24.35;;
74523;SDS011;63074;44.696;10.358;2024-01-15T01:28:34;45.10;;;23.83;;
74523;SDS011;63074;44.696;10.358;2024-01-15T01:31:00;48.83;;;24.60;;
74523;SDS011;63074;44.696;10.358;2024-01-15T01:33:26;45.15;;;23.67;;
74523;SDS011;63074;44.696;10.358;2024-01-15T01:35:53;44.28;;;25.77;;
74523;SDS011;63074;44.696;10.358;2024-01-15T01:38:19;45.20;;;22.88;;
74523;SDS011;63074;44.696;10.358;2024-01-15T01:40:45;49.25;;;23.48;;
74523;SDS011;63074;44.696;10.358;2024-01-15T01:43:11;47.35;;;23.20;;
74523;SDS011;63074;44.696;10.358;2024-01-15T01:45:37;42.90;;;22.58;;
74523;SDS011;63074;44.696;10.358;2024-01-15T01:48:04;43.95;;;23.30;;
74523;SDS011;63074;44.696;10.358;2024-01-15T01:50:30;45.08;;;24.48;;
74523;SDS011;63074;44.696;10.358;2024-01-15T01:52:57;50.00;;;24.08;;
74523;SDS011;63074;44.696;10.358;2024-01-15T01:55:24;50.15;;;25.58;;
74523;SDS011;63074;44.696;10.358;2024-01-15T01:57:52;45.15;;;23.85;;
74523;SDS011;63074;44.696;10.358;2024-01-15T02:00:20;48.70;;;23.83;;
74523;SDS011;63074;44.696;10.358;2024-01-15T02:02:46;48.15;;;22.85;;
74523;SDS011;63074;44.696;10.358;2024-01-15T02:05:12;52.22;;;24.13;;
74523;SDS011;63074;44.696;10.358;2024-01-15T02:07:43;52.63;;;24.80;;
74523;SDS011;63074;44.696;10.358;2024-01-15T02:10:09;48.40;;;23.08;;
74523;SDS011;63074;44.696;10.358;2024-01-15T02:12:36;47.85;;;24.02;;
74523;SDS011;63074;44.696;10.358;2024-01-15T02:15:02;44.25;;;24.05;;
74523;SDS011;63074;44.696;10.358;2024-01-15T02:17:29;51.90;;;24.23;;
74523;SDS011;63074;44.696;10.358;2024-01-15T02:19:55;44.88;;;23.75;;
74523;SDS011;63074;44.696;10.358;2024-01-15T02:22:21;51.42;;;24.75;;
74523;SDS011;63074;44.696;10.358;2024-01-15T02:24:47;53.42;;;26.17;;
74523;SDS011;63074;44.696;10.358;2024-01-15T02:27:14;53.13;;;25.10;;
74523;SDS011;63074;44.696;10.358;2024-01-15T02:29:40;48.78;;;24.20;;
74523;SDS011;63074;44.696;10.358;2024-01-15T02:32:07;47.17;;;23.88;;
74523;SDS011;63074;44.696;10.358;2024-01-15T02:34:34;46.47;;;23.52;;
74523;SDS011;63074;44.696;10.358;2024-01-15T02:37:00;49.00;;;24.15;;
74523;SDS011;63074;44.696;10.358;2024-01-15T02:39:27;44.17;;;22.85;;
74523;SDS011;63074;44.696;10.358;2024-01-15T02:41:54;51.50;;;25.25;;
74523;SDS011;63074;44.696;10.358;2024-01-15T02:44:22;45.40;;;22.95;;
74523;SDS011;63074;44.696;10.358;2024-01-15T02:46:48;48.35;;;23.45;;
74523;SDS011;63074;44.696;10.358;2024-01-15T02:49:15;44.10;;;23.70;;
74523;SDS011;63074;44.696;10.358;2024-01-15T02:51:41;41.92;;;22.88;;
74523;SDS011;63074;44.696;10.358;2024-01-15T02:54:07;46.05;;;22.73;;
74523;SDS011;63074;44.696;10.358;2024-01-15T02:56:33;47.42;;;23.13;;
74523;SDS011;63074;44.696;10.358;2024-01-15T02:58:59;45.08;;;22.92;;
74523;SDS011;63074;44.696;10.358;2024-01-15T03:01:26;47.42;;;23.27;;
74523;SDS011;63074;44.696;10.358;2024-01-15T03:03:52;50.47;;;21.85;;
74523;SDS011;63074;44.696;10.358;2024-01-15T03:06:20;41.17;;;21.83;;
74523;SDS011;63074;44.696;10.358;2024-01-15T03:08:46;49.35;;;24.23;;
74523;SDS011;63074;44.696;10.358;2024-01-15T03:11:12;45.47;;;22.25;;
74523;SDS011;63074;44.696;10.358;2024-01-15T03:13:38;45.15;;;22.30;;
74523;SDS011;63074;44.696;10.358;2024-01-15T03:16:05;46.88;;;23.08;;
74523;SDS011;63074;44.696;10.358;2024-01-15T03:18:31;46.45;;;22.95;;
74523;SDS011;63074;44.696;10.358;2024-01-15T03:20:57;45.42;;;22.48;;
74523;SDS011;63074;44.696;10.358;2024-01-15T03:23:26;51.22;;;24.90;;
74523;SDS011;63074;44.696;10.358;2024-01-15T03:25:52;49.15;;;24.58;;
74523;SDS011;63074;44.696;10.358;2024-01-15T03:28:18;49.10;;;25.50;;
74523;SDS011;63074;44.696;10.358;2024-01-15T03:30:44;50.58;;;25.55;;
74523;SDS011;63074;44.696;10.358;2024-01-15T03:33:10;49.05;;;23.15;;
74523;SDS011;63074;44.696;10.358;2024-01-15T03:35:37;51.53;;;23.77;;
74523;SDS011;63074;44.696;10.358;2024-01-15T03:38:03;54.90;;;24.65;;
74523;SDS011;63074;44.696;10.358;2024-01-15T03:40:32;48.33;;;24.10;;
74523;SDS011;63074;44.696;10.358;2024-01-15T03:42:58;48.08;;;23.15;;
74523;SDS011;63074;44.696;10.358;2024-01-15T03:45:25;48.58;;;24.73;;
74523;SDS011;63074;44.696;10.358;2024-01-15T03:47:51;51.40;;;23.85;;
74523;SDS011;63074;44.696;10.358;2024-01-15T03:50:17;47.45;;;23.50;;
74523;SDS011;63074;44.696;10.358;2024-01-15T03:52:44;49.65;;;22.35;;
74523;SDS011;63074;44.696;10.358;2024-01-15T03:55:10;50.28;;;25.05;;
74523;SDS011;63074;44.696;10.358;2024-01-15T03:57:36;48.20;;;24.98;;
74523;SDS011;63074;44.696;10.358;2024-01-15T04:00:02;47.50;;;22.73;;
74523;SDS011;63074;44.696;10.358;2024-01-15T04:02:29;47.67;;;23.25;;
74523;SDS011;63074;44.696;10.358;2024-01-15T04:04:55;46.70;;;24.30;;
74523;SDS011;63074;44.696;10.358;2024-01-15T04:07:22;48.95;;;25.25;;
74523;SDS011;63074;44.696;10.358;2024-01-15T04:09:48;47.92;;;22.95;;
74523;SDS011;63074;44.696;10.358;2024-01-15T04:12:14;49.92;;;23.23;;
74523;SDS011;63074;44.696;10.358;2024-01-15T04:14:40;50.60;;;23.75;;
74523;SDS011;63074;44.696;10.358;2024-01-15T04:17:06;39.67;;;22.33;;
74523;SDS011;63074;44.696;10.358;2024-01-15T04:19:33;47.90;;;25.45;;
74523;SDS011;63074;44.696;10.358;2024-01-15T04:21:59;45.13;;;22.67;;
74523;SDS011;63074;44.696;10.358;2024-01-15T04:24:25;53.70;;;23.88;;
74523;SDS011;63074;44.696;10.358;2024-01-15T04:26:51;47.75;;;23.17;;
74523;SDS011;63074;44.696;10.358;2024-01-15T04:29:17;45.05;;;21.60;;
74523;SDS011;63074;44.696;10.358;2024-01-15T04:31:43;53.63;;;24.67;;
74523;SDS011;63074;44.696;10.358;2024-01-15T04:34:10;52.60;;;23.38;;
74523;SDS011;63074;44.696;10.358;2024-01-15T04:36:39;45.35;;;23.73;;
74523;SDS011;63074;44.696;10.358;2024-01-15T04:39:06;47.72;;;25.30;;
74523;SDS011;63074;44.696;10.358;2024-01-15T04:41:33;45.88;;;24.35;;
74523;SDS011;63074;44.696;10.358;2024-01-15T04:43:59;50.15;;;25.25;;
74523;SDS011;63074;44.696;10.358;2024-01-15T04:46:26;48.53;;;23.40;;
74523;SDS011;63074;44.696;10.358;2024-01-15T04:48:52;51.00;;;25.30;;
74523;SDS011;63074;44.696;10.358;2024-01-15T04:51:18;52.13;;;24.45;;
74523;SDS011;63074;44.696;10.358;2024-01-15T04:53:44;55.22;;;24.60;;
74523;SDS011;63074;44.696;10.358;2024-01-15T04:56:11;52.58;;;23.25;;
74523;SDS011;63074;44.696;10.358;2024-01-15T04:58:37;60.53;;;25.95;;
74523;SDS011;63074;44.696;10.358;2024-01-15T05:01:03;57.15;;;30.70;;
74523;SDS011;63074;44.696;10.358;2024-01-15T05:03:29;53.03;;;24.08;;
74523;SDS011;63074;44.696;10.358;2024-01-15T05:05:55;53.67;;;26.17;;
74523;SDS011;63074;44.696;10.358;2024-01-15T05:08:22;56.90;;;25.75;;
74523;SDS011;63074;44.696;10.358;2024-01-15T05:10:48;54.22;;;24.85;;
74523;SDS011;63074;44.696;10.358;2024-01-15T05:13:14;62.95;;;26.35;;
74523;SDS011;63074;44.696;10.358;2024-01-15T05:15:40;51.10;;;24.05;;
74523;SDS011;63074;44.696;10.358;2024-01-15T05:18:06;57.05;;;25.70;;
74523;SDS011;63074;44.696;10.358;2024-01-15T05:20:32;48.25;;;21.70;;
74523;SDS011;63074;44.696;10.358;2024-01-15T05:22:59;52.17;;;22.63;;
74523;SDS011;63074;44.696;10.358;2024-01-15T05:25:25;40.33;;;18.55;;
74523;SDS011;63074;44.696;10.358;2024-01-15T05:27:51;64.10;;;25.80;;
74523;SDS011;63074;44.696;10.358;2024-01-15T05:30:18;65.20;;;26.25;;
74523;SDS011;63074;44.696;10.358;2024-01-15T05:32:44;57.28;;;23.13;;
74523;SDS011;63074;44.696;10.358;2024-01-15T05:35:10;60.30;;;27.95;;
74523;SDS011;63074;44.696;10.358;2024-01-15T05:37:36;56.75;;;24.05;;
74523;SDS011;63074;44.696;10.358;2024-01-15T05:40:04;61.13;;;26.92;;
74523;SDS011;63074;44.696;10.358;2024-01-15T05:42:31;63.05;;;26.05;;
74523;SDS011;63074;44.696;10.358;2024-01-15T05:44:57;59.15;;;27.48;;
74523;SDS011;63074;44.696;10.358;2024-01-15T05:47:24;64.40;;;26.77;;
74523;SDS011;63074;44.696;10.358;2024-01-15T05:49:50;64.07;;;27.38;;
74523;SDS011;63074;44.696;10.358;2024-01-15T05:52:17;58.92;;;26.90;;
74523;SDS011;63074;44.696;10.358;2024-01-15T05:54:43;60.30;;;27.15;;
74523;SDS011;63074;44.696;10.358;2024-01-15T05:57:09;63.13;;;27.80;;
74523;SDS011;63074;44.696;10.358;2024-01-15T05:59:35;62.17;;;26.63;;
74523;SDS011;63074;44.696;10.358;2024-01-15T06:02:01;61.22;;;27.65;;
74523;SDS011;63074;44.696;10.358;2024-01-15T06:04:28;63.55;;;26.95;;
74523;SDS011;63074;44.696;10.358;2024-01-15T06:06:54;63.97;;;27.63;;
74523;SDS011;63074;44.696;10.358;2024-01-15T06:09:20;60.80;;;28.40;;
74523;SDS011;63074;44.696;10.358;2024-01-15T06:11:46;63.90;;;29.10;;
74523;SDS011;63074;44.696;10.358;2024-01-15T06:14:13;57.70;;;28.90;;
74523;SDS011;63074;44.696;10.358;2024-01-15T06:16:39;62.97;;;28.20;;
74523;SDS011;63074;44.696;10.358;2024-01-15T06:19:05;63.05;;;30.08;;
74523;SDS011;63074;44.696;10.358;2024-01-15T06:21:31;56.30;;;26.08;;
74523;SDS011;63074;44.696;10.358;2024-01-15T06:23:57;57.42;;;28.25;;
74523;SDS011;63074;44.696;10.358;2024-01-15T06:26:23;59.22;;;27.77;;
74523;SDS011;63074;44.696;10.358;2024-01-15T06:28:51;63.75;;;26.95;;
74523;SDS011;63074;44.696;10.358;2024-01-15T06:31:17;59.70;;;28.98;;
74523;SDS011;63074;44.696;10.358;2024-01-15T06:33:43;54.33;;;26.10;;
74523;SDS011;63074;44.696;10.358;2024-01-15T06:36:12;59.97;;;26.85;;
74523;SDS011;63074;44.696;10.358;2024-01-15T06:38:38;57.78;;;25.70;;
74523;SDS011;63074;44.696;10.358;2024-01-15T06:41:04;58.22;;;27.60;;
74523;SDS011;63074;44.696;10.358;2024-01-15T06:43:31;54.72;;;25.48;;
74523;SDS011;63074;44.696;10.358;2024-01-15T06:45:57;57.10;;;27.88;;
74523;SDS011;63074;44.696;10.358;2024-01-15T06:48:23;49.35;;;24.75;;
74523;SDS011;63074;44.696;10.358;2024-01-15T06:50:49;58.03;;;29.80;;
74523;SDS011;63074;44.696;10.358;2024-01-15T06:53:16;59.60;;;27.88;;
74523;SDS011;63074;44.696;10.358;2024-01-15T06:55:42;56.75;;;25.85;;
74523;SDS011;63074;44.696;10.358;2024-01-15T06:58:08;52.97;;;26.58;;
74523;SDS011;63074;44.696;10.358;2024-01-15T07:00:34;57.47;;;26.30;;
74523;SDS011;63074;44.696;10.358;2024-01-15T07:03:00;51.85;;;25.27;;
74523;SDS011;63074;44.696;10.358;2024-01-15T07:05:27;51.63;;;23.73;;
74523;SDS011;63074;44.696;10.358;2024-01-15T07:07:55;56.53;;;26.23;;
74523;SDS011;63074;44.696;10.358;2024-01-15T07:10:21;53.67;;;24.40;;
74523;SDS011;63074;44.696;10.358;2024-01-15T07:12:47;52.30;;;25.42;;
74523;SDS011;63074;44.696;10.358;2024-01-15T07:15:14;54.50;;;26.33;;
74523;SDS011;63074;44.696;10.358;2024-01-15T07:17:41;53.03;;;24.98;;
74523;SDS011;63074;44.696;10.358;2024-01-15T07:20:07;52.20;;;24.25;;
74523;SDS011;63074;44.696;10.358;2024-01-15T07:22:37;47.92;;;21.95;;
74523;SDS011;63074;44.696;10.358;2024-01-15T07:25:03;53.05;;;25.08;;
74523;SDS011;63074;44.696;10.358;2024-01-15T07:27:30;50.22;;;24.58;;
74523;SDS011;63074;44.696;10.358;2024-01-15T07:29:57;55.92;;;24.40;;
74523;SDS011;63074;44.696;10.358;2024-01-15T07:32:23;44.88;;;21.30;;
74523;SDS011;63074;44.696;10.358;2024-01-15T07:34:50;49.95;;;23.52;;
74523;SDS011;63074;44.696;10.358;2024-01-15T07:37:16;55.42;;;26.67;;
74523;SDS011;63074;44.696;10.358;2024-01-15T07:39:42;51.67;;;24.98;;
74523;SDS011;63074;44.696;10.358;2024-01-15T07:42:08;57.53;;;26.48;;
74523;SDS011;63074;44.696;10.358;2024-01-15T07:44:34;49.40;;;24.33;;
74523;SDS011;63074;44.696;10.358;2024-01-15T07:47:01;47.63;;;25.40;;
74523;SDS011;63074;44.696;10.358;2024-01-15T07:49:28;48.95;;;23.38;;
74523;SDS011;63074;44.696;10.358;2024-01-15T07:51:54;47.78;;;24.35;;
74523;SDS011;63074;44.696;10.358;2024-01-15T07:54:21;51.53;;;25.77;;
74523;SDS011;63074;44.696;10.358;2024-01-15T07:56:58;50.60;;;28.25;;
74523;SDS011;63074;44.696;10.358;2024-01-15T07:59:26;55.05;;;24.95;;
74523;SDS011;63074;44.696;10.358;2024-01-15T08:01:52;47.65;;;24.77;;
74523;SDS011;63074;44.696;10.358;2024-01-15T08:04:19;48.10;;;27.50;;
74523;SDS011;63074;44.696;10.358;2024-01-15T08:06:45;47.60;;;26.17;;
74523;SDS011;63074;44.696;10.358;2024-01-15T08:09:12;53.75;;;25.42;;
74523;SDS011;63074;44.696;10.358;2024-01-15T08:11:41;50.13;;;25.67;;
74523;SDS011;63074;44.696;10.358;2024-01-15T08:14:08;56.95;;;26.90;;
74523;SDS011;63074;44.696;10.358;2024-01-15T08:16:35;53.65;;;23.58;;
74523;SDS011;63074;44.696;10.358;2024-01-15T08:19:02;51.42;;;26.52;;
74523;SDS011;63074;44.696;10.358;2024-01-15T08:21:28;50.60;;;26.45;;
74523;SDS011;63074;44.696;10.358;2024-01-15T08:23:56;52.45;;;26.15;;
74523;SDS011;63074;44.696;10.358;2024-01-15T08:26:23;50.22;;;25.05;;
74523;SDS011;63074;44.696;10.358;2024-01-15T08:28:50;50.13;;;27.17;;
74523;SDS011;63074;44.696;10.358;2024-01-15T08:31:16;52.40;;;24.70;;
74523;SDS011;63074;44.696;10.358;2024-01-15T08:33:42;46.13;;;23.13;;
74523;SDS011;63074;44.696;10.358;2024-01-15T08:36:09;51.30;;;25.77;;
74523;SDS011;63074;44.696;10.358;2024-01-15T08:38:38;55.55;;;26.58;;
74523;SDS011;63074;44.696;10.358;2024-01-15T08:41:05;55.70;;;26.85;;
74523;SDS011;63074;44.696;10.358;2024-01-15T08:43:31;52.40;;;26.10;;
74523;SDS011;63074;44.696;10.358;2024-01-15T08:45:57;51.10;;;25.77;;
74523;SDS011;63074;44.696;10.358;2024-01-15T08:48:24;51.00;;;25.23;;
74523;SDS011;63074;44.696;10.358;2024-01-15T08:50:53;55.97;;;26.98;;
74523;SDS011;63074;44.696;10.358;2024-01-15T08:53:19;48.03;;;24.50;;
74523;SDS011;63074;44.696;10.358;2024-01-15T08:55:46;52.83;;;24.98;;
74523;SDS011;63074;44.696;10.358;2024-01-15T08:58:13;50.75;;;24.85;;
74523;SDS011;63074;44.696;10.358;2024-01-15T09:00:39;51.90;;;25.90;;
74523;SDS011;63074;44.696;10.358;2024-01-15T09:03:06;52.75;;;27.80;;
74523;SDS011;63074;44.696;10.358;2024-01-15T09:05:33;50.28;;;26.88;;
74523;SDS011;63074;44.696;10.358;2024-01-15T09:08:00;51.80;;;24.42;;
74523;SDS011;63074;44.696;10.358;2024-01-15T09:10:26;50.08;;;26.83;;
74523;SDS011;63074;44.696;10.358;2024-01-15T09:12:52;52.30;;;26.48;;
74523;SDS011;63074;44.696;10.358;2024-01-15T09:15:18;51.85;;;25.88;;
74523;SDS011;63074;44.696;10.358;2024-01-15T09:17:45;66.80;;;25.48;;
74523;SDS011;63074;44.696;10.358;2024-01-15T09:20:11;51.55;;;27.00;;
74523;SDS011;63074;44.696;10.358;2024-01-15T09:22:37;55.80;;;26.05;;
74523;SDS011;63074;44.696;10.358;2024-01-15T09:25:06;47.92;;;24.77;;
74523;SDS011;63074;44.696;10.358;2024-01-15T09:27:36;56.08;;;25.45;;
74523;SDS011;63074;44.696;10.358;2024-01-15T09:30:03;45.17;;;23.90;;
74523;SDS011;63074;44.696;10.358;2024-01-15T09:32:30;44.08;;;23.63;;
74523;SDS011;63074;44.696;10.358;2024-01-15T09:34:57;46.25;;;24.85;;
74523;SDS011;63074;44.696;10.358;2024-01-15T09:37:24;47.45;;;24.02;;
74523;SDS011;63074;44.696;10.358;2024-01-15T09:39:50;41.78;;;23.38;;
74523;SDS011;63074;44.696;10.358;2024-01-15T09:42:16;45.33;;;22.05;;
74523;SDS011;63074;44.696;10.358;2024-01-15T09:44:44;46.80;;;23.58;;
74523;SDS011;63074;44.696;10.358;2024-01-15T09:47:11;45.65;;;22.77;;
74523;SDS011;63074;44.696;10.358;2024-01-15T09:49:38;46.28;;;23.42;;
74523;SDS011;63074;44.696;10.358;2024-01-15T09:52:05;50.13;;;23.25;;
74523;SDS011;63074;44.696;10.358;2024-01-15T09:54:33;41.58;;;23.38;;
74523;SDS011;63074;44.696;10.358;2024-01-15T09:57:00;48.55;;;24.63;;
74523;SDS011;63074;44.696;10.358;2024-01-15T09:59:26;46.92;;;24.75;;
74523;SDS011;63074;44.696;10.358;2024-01-15T10:01:53;45.08;;;20.92;;
74523;SDS011;63074;44.696;10.358;2024-01-15T10:04:20;45.38;;;24.00;;
74523;SDS011;63074;44.696;10.358;2024-01-15T10:06:46;45.03;;;22.52;;
74523;SDS011;63074;44.696;10.358;2024-01-15T10:09:15;45.88;;;22.73;;
74523;SDS011;63074;44.696;10.358;2024-01-15T10:11:42;49.85;;;23.50;;
74523;SDS011;63074;44.696;10.358;2024-01-15T10:14:10;44.10;;;22.98;;
74523;SDS011;63074;44.696;10.358;2024-01-15T10:16:40;45.38;;;24.50;;
74523;SDS011;63074;44.696;10.358;2024-01-15T10:19:09;49.50;;;24.60;;
74523;SDS011;63074;44.696;10.358;2024-01-15T10:21:36;48.42;;;25.08;;
74523;SDS011;63074;44.696;10.358;2024-01-15T10:24:03;44.22;;;23.08;;
74523;SDS011;63074;44.696;10.358;2024-01-15T10:26:30;50.47;;;24.90;;
74523;SDS011;63074;44.696;10.358;2024-01-15T10:29:00;51.38;;;25.55;;
74523;SDS011;63074;44.696;10.358;2024-01-15T10:31:26;43.38;;;22.42;;
74523;SDS011;63074;44.696;10.358;2024-01-15T10:33:53;53.55;;;25.02;;
74523;SDS011;63074;44.696;10.358;2024-01-15T10:36:34;44.55;;;24.08;;
74523;SDS011;63074;44.696;10.358;2024-01-15T10:39:00;49.65;;;23.75;;
74523;SDS011;63074;44.696;10.358;2024-01-15T10:41:27;49.58;;;25.52;;
74523;SDS011;63074;44.696;10.358;2024-01-15T10:43:54;47.40;;;24.45;;
74523;SDS011;63074;44.696;10.358;2024-01-15T10:46:20;45.08;;;23.27;;
74523;SDS011;63074;44.696;10.358;2024-01-15T10:48:46;45.60;;;23.27;;
74523;SDS011;63074;44.696;10.358;2024-01-15T10:51:12;45.35;;;23.73;;
74523;SDS011;63074;44.696;10.358;2024-01-15T10:53:40;52.55;;;26.35;;
74523;SDS011;63074;44.696;10.358;2024-01-15T10:56:08;47.85;;;23.92;;
74523;SDS011;63074;44.696;10.358;2024-01-15T10:58:36;47.22;;;21.95;;
74523;SDS011;63074;44.696;10.358;2024-01-15T11:01:04;48.33;;;23.83;;
74523;SDS011;63074;44.696;10.358;2024-01-15T11:03:31;47.55;;;24.10;;
74523;SDS011;63074;44.696;10.358;2024-01-15T11:05:58;47.45;;;23.27;;
74523;SDS011;63074;44.696;10.358;2024-01-15T11:08:25;45.63;;;23.30;;
74523;SDS011;63074;44.696;10.358;2024-01-15T11:10:52;45.85;;;24.08;;
74523;SDS011;63074;44.696;10.358;2024-01-15T11:13:20;46.45;;;24.30;;
74523;SDS011;63074;44.696;10.358;2024-01-15T11:15:57;41.05;;;23.05;;
74523;SDS011;63074;44.696;10.358;2024-01-15T11:18:40;48.25;;;23.40;;
74523;SDS011;63074;44.696;10.358;2024-01-15T11:23:49;44.45;;;25.23;;
74523;SDS011;63074;44.696;10.358;2024-01-15T11:26:37;50.40;;;25.45;;
74523;SDS011;63074;44.696;10.358;2024-01-15T11:29:07;46.38;;;23.05;;
74523;SDS011;63074;44.696;10.358;2024-01-15T11:34:07;49.95;;;25.23;;
74523;SDS011;63074;44.696;10.358;2024-01-15T11:39:39;51.10;;;25.05;;
74523;SDS011;63074;44.696;10.358;2024-01-15T11:42:07;48.10;;;25.42;;
74523;SDS011;63074;44.696;10.358;2024-01-15T11:44:35;48.40;;;25.95;;
74523;SDS011;63074;44.696;10.358;2024-01-15T11:47:03;45.55;;;26.00;;
74523;SDS011;63074;44.696;10.358;2024-01-15T11:52:16;48.20;;;26.20;;
74523;SDS011;63074;44.696;10.358;2024-01-15T11:54:49;50.55;;;26.02;;
74523;SDS011;63074;44.696;10.358;2024-01-15T11:57:35;52.03;;;26.75;;
74523;SDS011;63074;44.696;10.358;2024-01-15T12:00:08;52.55;;;26.13;;
74523;SDS011;63074;44.696;10.358;2024-01-15T12:02:36;48.53;;;25.75;;
74523;SDS011;63074;44.696;10.358;2024-01-15T12:05:07;50.65;;;25.63;;
74523;SDS011;63074;44.696;10.358;2024-01-15T12:07:34;47.80;;;25.20;;
74523;SDS011;63074;44.696;10.358;2024-01-15T12:10:01;54.10;;;26.67;;
74523;SDS011;63074;44.696;10.358;2024-01-15T12:12:34;49.03;;;25.45;;
74523;SDS011;63074;44.696;10.358;2024-01-15T12:15:19;42.38;;;23.92;;
74523;SDS011;63074;44.696;10.358;2024-01-15T12:17:45;49.33;;;26.17;;
74523;SDS011;63074;44.696;10.358;2024-01-15T12:20:12;41.33;;;23.85;;
74523;SDS011;63074;44.696;10.358;2024-01-15T12:22:39;45.22;;;24.20;;
74523;SDS011;63074;44.696;10.358;2024-01-15T12:25:05;41.80;;;23.02;;
74523;SDS011;63074;44.696;10.358;2024-01-15T12:27:32;44.63;;;23.70;;
74523;SDS011;63074;44.696;10.358;2024-01-15T12:29:59;45.42;;;23.60;;
74523;SDS011;63074;44.696;10.358;2024-01-15T12:32:25;40.83;;;22.90;;
74523;SDS011;63074;44.696;10.358;2024-01-15T12:34:51;39.03;;;21.83;;
74523;SDS011;63074;44.696;10.358;2024-01-15T12:37:18;39.53;;;21.30;;
74523;SDS011;63074;44.696;10.358;2024-01-15T12:39:44;35.33;;;20.33;;
74523;SDS011;63074;44.696;10.358;2024-01-15T12:42:11;40.88;;;22.27;;
74523;SDS011;63074;44.696;10.358;2024-01-15T12:44:39;36.35;;;21.05;;
74523;SDS011;63074;44.696;10.358;2024-01-15T12:47:05;38.63;;;22.08;;
74523;SDS011;63074;44.696;10.358;2024-01-15T12:49:32;36.80;;;19.58;;
74523;SDS011;63074;44.696;10.358;2024-01-15T12:51:58;35.13;;;21.30;;
74523;SDS011;63074;44.696;10.358;2024-01-15T12:54:25;32.92;;;22.02;;
74523;SDS011;63074;44.696;10.358;2024-01-15T12:56:51;34.70;;;20.40;;
74523;SDS011;63074;44.696;10.358;2024-01-15T12:59:18;35.42;;;20.17;;
74523;SDS011;63074;44.696;10.358;2024-01-15T13:01:44;36.05;;;21.52;;
74523;SDS011;63074;44.696;10.358;2024-01-15T13:04:11;36.13;;;19.45;;
74523;SDS011;63074;44.696;10.358;2024-01-15T13:06:47;31.83;;;19.48;;
74523;SDS011;63074;44.696;10.358;2024-01-15T13:09:14;32.60;;;20.23;;
74523;SDS011;63074;44.696;10.358;2024-01-15T13:11:40;30.35;;;19.98;;
74523;SDS011;63074;44.696;10.358;2024-01-15T13:14:06;34.20;;;20.08;;
74523;SDS011;63074;44.696;10.358;2024-01-15T13:16:33;34.03;;;20.23;;
74523;SDS011;63074;44.696;10.358;2024-01-15T13:18:59;27.95;;;18.45;;
74523;SDS011;63074;44.696;10.358;2024-01-15T13:21:25;31.52;;;20.25;;
74523;SDS011;63074;44.696;10.358;2024-01-15T13:23:51;31.92;;;20.08;;
74523;SDS011;63074;44.696;10.358;2024-01-15T13:26:17;32.60;;;19.33;;
74523;SDS011;63074;44.696;10.358;2024-01-15T13:28:44;32.28;;;20.17;;
74523;SDS011;63074;44.696;10.358;2024-01-15T13:31:10;28.63;;;18.48;;
74523;SDS011;63074;44.696;10.358;2024-01-15T13:33:36;30.13;;;18.00;;
74523;SDS011;63074;44.696;10.358;2024-01-15T13:36:03;32.65;;;20.17;;
74523;SDS011;63074;44.696;10.358;2024-01-15T13:43:28;31.50;;;19.17;;
74523;SDS011;63074;44.696;10.358;2024-01-15T13:45:54;32.55;;;18.95;;
74523;SDS011;63074;44.696;10.358;2024-01-15T13:48:20;29.20;;;18.88;;
74523;SDS011;63074;44.696;10.358;2024-01-15T13:50:46;28.70;;;18.38;;
74523;SDS011;63074;44.696;10.358;2024-01-15T13:53:12;29.60;;;18.95;;
74523;SDS011;63074;44.696;10.358;2024-01-15T13:55:39;33.70;;;19.88;;
74523;SDS011;63074;44.696;10.358;2024-01-15T13:58:05;28.90;;;18.20;;
74523;SDS011;63074;44.696;10.358;2024-01-15T14:00:40;28.49;;;19.04;;
74523;SDS011;63074;44.696;10.358;2024-01-15T14:03:06;28.60;;;18.70;;
74523;SDS011;63074;44.696;10.358;2024-01-15T14:05:33;30.35;;;18.58;;
74523;SDS011;63074;44.696;10.358;2024-01-15T14:07:59;28.70;;;19.25;;
74523;SDS011;63074;44.696;10.358;2024-01-15T14:10:25;31.33;;;19.42;;
74523;SDS011;63074;44.696;10.358;2024-01-15T14:12:51;28.42;;;19.63;;
74523;SDS011;63074;44.696;10.358;2024-01-15T14:15:18;30.13;;;19.63;;
74523;SDS011;63074;44.696;10.358;2024-01-15T14:17:46;30.48;;;18.85;;
74523;SDS011;63074;44.696;10.358;2024-01-15T14:20:12;28.80;;;19.20;;
74523;SDS011;63074;44.696;10.358;2024-01-15T14:22:38;32.22;;;18.95;;